Time;durP1;ratioP1;P1;durP2;ratioP2;P2;SDS_P1;SDS_P2;PMS_P1;PMS_P2;Temp;Humidity;BMP_temperature;BMP_pressure;BME280_temperature;BME280_humidity;BME280_pressure;Samples;Min_cycle;Max_cycle;Signal;HPM_P1;HPM_P2
2023/09/29 00:02:07;;;;;;;13.27;5.50;;;358.90;2329.60;;;;;;5085896;28;20367;-58
2023/09/29 00:04:33;;;;;;;9.98;5.22;;;358.90;2329.60;;;;;;5087448;28;20396;-58
2023/09/29 00:06:59;;;;;;;7.50;5.00;;;358.90;2329.60;;;;;;5087378;28;20032;-58
2023/09/29 00:09:25;;;;;;;11.15;5.93;;;358.80;2329.60;;;;;;5086201;28;20028;-58
2023/09/29 00:11:51;;;;;;;7.65;5.78;;;358.80;2329.60;;;;;;5087663;28;20028;-60
2023/09/29 00:14:17;;;;;;;8.80;5.13;;;358.80;2329.60;;;;;;5074374;28;20024;-58
2023/09/29 00:16:43;;;;;;;9.75;4.95;;;358.80;2329.60;;;;;;5089974;28;20046;-59
2023/09/29 00:19:08;;;;;;;6.70;4.50;;;358.90;2329.60;;;;;;5088141;28;20071;-58
2023/09/29 00:21:34;;;;;;;7.65;5.28;;;358.90;2329.60;;;;;;5081785;28;20059;-58
2023/09/29 00:24:00;;;;;;;7.60;4.20;;;359.00;2329.60;;;;;;5090794;28;20060;-60
2023/09/29 00:26:26;;;;;;;12.65;5.15;;;359.00;2329.60;;;;;;5091986;28;20020;-58
2023/09/29 00:28:52;;;;;;;9.43;4.47;;;359.00;2329.60;;;;;;5091166;28;20036;-60
2023/09/29 00:31:18;;;;;;;9.13;5.20;;;359.00;2329.60;;;;;;5068651;28;20032;-58
2023/09/29 00:33:43;;;;;;;7.63;5.22;;;359.00;2329.60;;;;;;5082937;28;20027;-59
2023/09/29 00:36:09;;;;;;;11.10;5.43;;;359.00;2329.60;;;;;;5091637;28;20046;-60
2023/09/29 00:38:35;;;;;;;8.55;5.15;;;359.00;2329.60;;;;;;5091312;28;20486;-58
2023/09/29 00:41:01;;;;;;;11.35;4.85;;;359.00;2329.60;;;;;;5091473;28;20055;-59
2023/09/29 00:43:27;;;;;;;9.18;5.63;;;359.00;2329.60;;;;;;5091045;28;20389;-58
2023/09/29 00:45:54;;;;;;;9.85;5.55;;;358.90;2329.60;;;;;;5091440;28;20067;-58
2023/09/29 00:48:22;;;;;;;10.05;5.53;;;358.80;2329.60;;;;;;5090775;28;20036;-59
2023/09/29 00:50:48;;;;;;;11.88;5.35;;;358.80;2329.60;;;;;;5090583;28;20024;-58
2023/09/29 00:53:18;;;;;;;13.60;5.65;;;358.80;2329.60;;;;;;5091490;28;20032;-59
2023/09/29 00:55:45;;;;;;;9.85;4.82;;;358.80;2329.60;;;;;;5091882;28;20020;-58
2023/09/29 00:58:14;;;;;;;9.95;5.18;;;358.80;2329.60;;;;;;5091113;28;20111;-59
2023/09/29 01:00:41;;;;;;;20.23;5.35;;;358.80;2329.60;;;;;;5091201;28;20355;-58
2023/09/29 01:03:15;;;;;;;11.15;5.50;;;358.80;2329.60;;;;;;5091127;28;20039;-58
2023/09/29 01:05:49;;;;;;;6.53;5.20;;;358.80;2329.60;;;;;;5090413;28;20024;-60
2023/09/29 01:08:23;;;;;;;7.82;5.30;;;358.70;2329.60;;;;;;5076380;28;20498;-57
2023/09/29 01:10:50;;;;;;;8.20;5.80;;;358.60;2329.60;;;;;;5076475;28;20059;-58
2023/09/29 01:13:15;;;;;;;6.63;4.78;;;358.50;2329.60;;;;;;5090615;28;20054;-58
2023/09/29 01:15:42;;;;;;;8.38;4.95;;;358.50;2329.60;;;;;;5090144;28;20024;-59
2023/09/29 01:18:11;;;;;;;8.57;5.25;;;358.50;2329.60;;;;;;5090221;28;20025;-58
2023/09/29 01:20:40;;;;;;;8.93;5.68;;;358.60;2329.60;;;;;;5090691;28;20493;-58
2023/09/29 01:23:07;;;;;;;7.68;4.75;;;358.60;2329.60;;;;;;5090559;28;20036;-58
2023/09/29 01:25:34;;;;;;;9.57;5.57;;;358.50;2329.60;;;;;;5090163;28;20547;-58
2023/09/29 01:28:01;;;;;;;10.13;5.65;;;358.50;2329.60;;;;;;5090832;28;20117;-59
2023/09/29 01:30:27;;;;;;;9.05;5.82;;;358.50;2329.60;;;;;;5090043;28;20028;-59
2023/09/29 01:32:57;;;;;;;7.10;5.38;;;358.40;2329.60;;;;;;5090145;28;20324;-58
2023/09/29 01:35:27;;;;;;;6.60;5.05;;;358.40;2329.60;;;;;;5090258;28;20074;-58
2023/09/29 01:37:55;;;;;;;10.00;5.95;;;358.40;2329.60;;;;;;5090323;28;20020;-58
2023/09/29 01:40:22;;;;;;;7.78;4.90;;;358.40;2329.60;;;;;;5089966;28;20046;-59
2023/09/29 01:42:49;;;;;;;8.45;5.47;;;358.40;2329.60;;;;;;5090126;28;20386;-57
2023/09/29 01:45:15;;;;;;;8.02;4.53;;;358.40;2329.60;;;;;;5063520;28;20020;-59
2023/09/29 01:47:43;;;;;;;13.35;4.97;;;358.40;2329.60;;;;;;5063672;28;20037;-58
2023/09/29 01:50:14;;;;;;;9.10;4.88;;;358.40;2329.60;;;;;;5076829;28;20029;-58
2023/09/29 01:52:40;;;;;;;9.00;5.53;;;358.40;2329.60;;;;;;5089655;28;20390;-58
2023/09/29 01:55:12;;;;;;;8.68;5.45;;;358.40;2329.60;;;;;;5090266;28;20056;-58
2023/09/29 01:57:38;;;;;;;8.65;5.85;;;358.40;2329.60;;;;;;5089961;28;20031;-58
2023/09/29 02:00:05;;;;;;;9.25;4.82;;;358.40;2329.60;;;;;;5089819;28;20418;-60
2023/09/29 02:02:31;;;;;;;8.30;5.30;;;358.40;2329.60;;;;;;5090201;28;20071;-58
2023/09/29 02:04:57;;;;;;;12.63;4.80;;;358.50;2329.60;;;;;;5089325;28;20056;-55
2023/09/29 02:07:24;;;;;;;14.02;5.15;;;358.40;2329.60;;;;;;5089676;28;20529;-58
2023/09/29 02:09:51;;;;;;;11.18;5.28;;;333.70;2329.60;;;;;;5090261;28;20073;-58
2023/09/29 02:12:17;;;;;;;9.80;5.75;;;333.70;2329.60;;;;;;5075457;28;20515;-60
2023/09/29 02:14:43;;;;;;;8.35;4.75;;;333.70;2329.60;;;;;;5088182;28;20051;-58
2023/09/29 02:17:09;;;;;;;9.48;5.40;;;333.70;2329.60;;;;;;5088367;28;20497;-60
2023/09/29 02:19:35;;;;;;;8.57;5.38;;;358.40;2329.60;;;;;;5069888;28;20045;-57
2023/09/29 02:22:07;;;;;;;7.28;5.00;;;333.70;2329.60;;;;;;5084941;28;20040;-58
2023/09/29 02:24:34;;;;;;;7.20;5.25;;;358.40;2329.60;;;;;;5090054;28;20044;-59
2023/09/29 02:27:00;;;;;;;7.50;5.47;;;333.70;2329.60;;;;;;5089298;28;20488;-60
2023/09/29 02:29:27;;;;;;;9.25;5.30;;;333.70;2329.60;;;;;;5088683;28;20035;-59
2023/09/29 02:31:55;;;;;;;9.02;5.22;;;333.70;2329.60;;;;;;5089718;28;20047;-59
2023/09/29 02:34:22;;;;;;;10.13;5.90;;;358.40;2329.60;;;;;;5089380;28;20032;-60
2023/09/29 02:36:48;;;;;;;7.85;5.20;;;333.70;2329.60;;;;;;5089346;28;20554;-59
2023/09/29 02:39:14;;;;;;;9.00;5.18;;;333.70;2329.60;;;;;;5089246;28;20107;-58
2023/09/29 02:41:40;;;;;;;6.32;4.20;;;333.70;2329.60;;;;;;5089342;28;20028;-58
2023/09/29 02:44:07;;;;;;;8.32;5.63;;;333.60;2329.60;;;;;;5088976;28;20440;-59
2023/09/29 02:46:33;;;;;;;7.05;4.93;;;333.60;2329.60;;;;;;5088943;28;20444;-59
2023/09/29 02:48:59;;;;;;;11.68;5.55;;;333.50;2329.60;;;;;;5083837;28;20044;-58
2023/09/29 02:51:24;;;;;;;8.32;5.18;;;333.50;2329.60;;;;;;5077140;28;20016;-58
2023/09/29 02:53:51;;;;;;;11.45;6.03;;;333.40;2329.60;;;;;;5089281;28;20028;-57
2023/09/29 02:56:17;;;;;;;9.30;6.18;;;333.40;2329.60;;;;;;5088656;28;20028;-57
2023/09/29 02:58:44;;;;;;;9.65;6.03;;;333.40;2329.60;;;;;;5089249;28;20081;-58
2023/09/29 03:01:18;;;;;;;9.05;5.65;;;333.40;2329.60;;;;;;5089406;28;20450;-61
2023/09/29 03:03:45;;;;;;;9.52;5.32;;;333.40;2329.60;;;;;;5088454;28;20111;-59
2023/09/29 03:06:18;;;;;;;8.00;5.07;;;333.30;2329.60;;;;;;5088884;28;20016;-58
2023/09/29 03:08:44;;;;;;;9.20;5.15;;;333.30;2329.60;;;;;;5088591;28;20481;-58
2023/09/29 03:11:12;;;;;;;8.80;5.68;;;333.30;2329.60;;;;;;5088899;28;20020;-58
2023/09/29 03:13:40;;;;;;;10.95;5.85;;;333.30;2329.60;;;;;;5088617;28;20020;-57
2023/09/29 03:16:07;;;;;;;6.47;5.35;;;333.30;2329.60;;;;;;5088599;28;20509;-59
2023/09/29 03:18:37;;;;;;;11.10;5.97;;;333.30;2329.60;;;;;;5088402;28;20390;-59
2023/09/29 03:21:09;;;;;;;9.10;5.95;;;333.30;2329.60;;;;;;5088978;28;20423;-58
2023/09/29 03:23:38;;;;;;;11.10;5.75;;;333.30;2329.60;;;;;;5062916;28;20498;-57
2023/09/29 03:26:04;;;;;;;12.00;6.53;;;333.20;2329.60;;;;;;5077752;28;20500;-60
2023/09/29 03:28:31;;;;;;;12.90;6.22;;;333.20;2329.60;;;;;;5088278;28;20051;-57
2023/09/29 03:30:58;;;;;;;8.70;6.72;;;333.20;2329.60;;;;;;5088325;28;20031;-59
2023/09/29 03:33:24;;;;;;;13.35;7.30;;;333.20;2329.60;;;;;;5088621;28;20095;-58
2023/09/29 03:35:50;;;;;;;12.45;6.70;;;333.20;2329.60;;;;;;5088667;28;20496;-59
2023/09/29 03:38:20;;;;;;;12.65;6.55;;;333.20;2329.60;;;;;;5087959;28;20016;-59
2023/09/29 03:40:50;;;;;;;18.83;6.25;;;333.20;2329.60;;;;;;5088299;28;20020;-60
2023/09/29 03:43:16;;;;;;;12.32;7.25;;;333.10;2329.60;;;;;;5088271;28;20451;-58
2023/09/29 03:45:42;;;;;;;10.00;6.97;;;333.10;2329.60;;;;;;5088261;28;20047;-58
2023/09/29 03:48:09;;;;;;;12.10;7.25;;;333.10;2329.60;;;;;;5088014;28;20064;-58
2023/09/29 03:50:35;;;;;;;14.05;6.43;;;333.10;2329.60;;;;;;5090216;28;20024;-59
2023/09/29 03:53:01;;;;;;;9.48;6.28;;;333.20;2329.60;;;;;;5092268;28;20063;-59
2023/09/29 03:55:27;;;;;;;8.25;6.30;;;333.10;2329.60;;;;;;5071913;28;20028;-58
2023/09/29 03:57:54;;;;;;;11.00;6.53;;;333.20;2329.60;;;;;;5071757;28;20033;-60
2023/09/29 04:00:21;;;;;;;15.90;7.03;;;333.20;2329.60;;;;;;5083264;28;20016;-60
2023/09/29 04:02:50;;;;;;;12.85;7.43;;;333.10;2329.60;;;;;;5091288;28;20123;-59
2023/09/29 04:05:17;;;;;;;13.30;7.10;;;333.10;2329.60;;;;;;5091787;28;20043;-59
2023/09/29 04:07:43;;;;;;;10.57;7.22;;;333.10;2329.60;;;;;;5092042;28;20020;-58
2023/09/29 04:10:11;;;;;;;18.92;8.00;;;333.10;2329.60;;;;;;5091787;28;20065;-60
2023/09/29 04:12:41;;;;;;;10.55;6.75;;;333.10;2329.60;;;;;;5091984;28;20107;-60
2023/09/29 04:15:08;;;;;;;12.93;7.38;;;332.90;2329.60;;;;;;5091943;28;20517;-59
2023/09/29 04:17:37;;;;;;;10.27;6.50;;;332.90;2329.60;;;;;;5092177;28;20028;-58
2023/09/29 04:20:05;;;;;;;12.52;7.55;;;332.90;2329.60;;;;;;5091520;28;20044;-58
2023/09/29 04:22:32;;;;;;;14.25;6.70;;;332.90;2329.60;;;;;;5091843;28;20028;-60
2023/09/29 04:24:58;;;;;;;14.15;8.13;;;332.90;2329.60;;;;;;5091397;28;20034;-58
2023/09/29 04:27:24;;;;;;;11.48;6.00;;;333.00;2329.60;;;;;;5075563;28;20509;-60
2023/09/29 04:29:53;;;;;;;17.13;7.60;;;333.10;2329.60;;;;;;5085897;28;20103;-59
2023/09/29 04:32:18;;;;;;;10.60;5.70;;;333.10;2329.60;;;;;;5091934;28;20068;-59
2023/09/29 04:34:45;;;;;;;12.35;6.15;;;333.00;2329.60;;;;;;5090927;28;20035;-58
2023/09/29 04:37:11;;;;;;;9.80;6.20;;;333.10;2329.60;;;;;;5091303;28;20518;-58
2023/09/29 04:39:37;;;;;;;11.57;6.95;;;333.20;2329.60;;;;;;5091168;28;20036;-59
2023/09/29 04:42:06;;;;;;;12.50;6.15;;;333.30;2329.60;;;;;;5091128;28;20123;-60
2023/09/29 04:44:32;;;;;;;12.52;5.93;;;333.40;2329.60;;;;;;5090660;28;20458;-57
2023/09/29 04:46:59;;;;;;;12.00;6.53;;;333.30;2329.60;;;;;;5091258;28;20036;-59
2023/09/29 04:49:24;;;;;;;11.70;6.60;;;333.40;2329.60;;;;;;5091261;28;20449;-58
2023/09/29 04:51:50;;;;;;;12.73;7.22;;;333.40;2329.60;;;;;;5091248;28;20378;-59
2023/09/29 04:54:16;;;;;;;16.92;6.38;;;333.40;2329.60;;;;;;5090614;28;20107;-59
2023/09/29 04:56:41;;;;;;;12.80;6.85;;;333.40;2329.60;;;;;;5091451;28;20048;-58
2023/09/29 04:59:08;;;;;;;14.88;5.97;;;333.60;2329.60;;;;;;5074149;28;20565;-59
2023/09/29 05:01:36;;;;;;;15.25;7.72;;;333.60;2329.60;;;;;;5090554;28;20016;-60
2023/09/29 05:04:02;;;;;;;13.55;7.60;;;333.60;2329.60;;;;;;5090460;28;20020;-58
2023/09/29 05:06:29;;;;;;;9.68;6.70;;;333.70;2329.60;;;;;;5090646;28;20127;-59
2023/09/29 05:08:55;;;;;;;10.98;6.70;;;333.70;2329.60;;;;;;5090293;28;20031;-59
2023/09/29 05:11:22;;;;;;;12.05;6.82;;;358.40;2329.60;;;;;;5090876;28;20024;-59
2023/09/29 05:13:48;;;;;;;11.48;8.25;;;358.40;2329.60;;;;;;5089737;28;20046;-59
2023/09/29 05:16:14;;;;;;;13.70;8.00;;;358.50;2329.60;;;;;;5090871;28;20103;-57
2023/09/29 05:18:40;;;;;;;10.73;7.43;;;358.50;2329.60;;;;;;5089859;28;20513;-61
2023/09/29 05:21:06;;;;;;;11.75;6.85;;;358.60;2329.60;;;;;;5090630;28;20024;-60
2023/09/29 05:23:31;;;;;;;13.68;7.72;;;358.70;2329.60;;;;;;5076807;28;20032;-57
2023/09/29 05:26:02;;;;;;;8.68;7.57;;;358.70;2329.60;;;;;;5090284;28;20103;-59
2023/09/29 05:28:28;;;;;;;11.18;7.10;;;358.70;2329.60;;;;;;5090876;28;20437;-58
2023/09/29 05:30:54;;;;;;;12.45;7.63;;;358.80;2329.60;;;;;;5089855;28;20047;-58
2023/09/29 05:33:20;;;;;;;10.38;7.45;;;358.90;2329.60;;;;;;5077457;28;20431;-59
2023/09/29 05:35:46;;;;;;;11.68;7.22;;;359.00;2329.60;;;;;;5071334;28;20024;-59
2023/09/29 05:38:12;;;;;;;11.38;6.00;;;359.00;2329.60;;;;;;5082011;28;20032;-59
2023/09/29 05:40:38;;;;;;;11.93;6.95;;;359.00;2329.60;;;;;;5089600;28;20020;-58
2023/09/29 05:43:07;;;;;;;9.50;6.32;;;359.00;2329.60;;;;;;5088099;28;20048;-58
2023/09/29 05:45:32;;;;;;;13.80;6.95;;;359.30;2329.60;;;;;;5090336;28;20038;-59
2023/09/29 05:47:58;;;;;;;8.32;5.65;;;384.00;2329.60;;;;;;5089333;28;20377;-59
2023/09/29 05:50:24;;;;;;;11.30;6.35;;;384.10;2329.60;;;;;;5090265;28;20024;-58
2023/09/29 05:52:50;;;;;;;7.93;5.82;;;384.20;2329.60;;;;;;5086273;28;20055;-57
2023/09/29 05:55:15;;;;;;;9.52;6.00;;;384.40;2329.60;;;;;;5077342;28;20028;-59
2023/09/29 05:57:41;;;;;;;10.63;6.45;;;384.60;2329.60;;;;;;5086309;28;20024;-59
2023/09/29 06:00:07;;;;;;;17.52;6.80;;;409.60;2355.20;;;;;;5089737;28;20032;-59
2023/09/29 06:02:33;;;;;;;12.07;6.47;;;461.50;2380.80;;;;;;5090185;28;20113;-59
2023/09/29 06:04:59;;;;;;;10.05;6.15;;;512.50;2380.80;;;;;;5080487;28;20467;-59
2023/09/29 06:07:25;;;;;;;9.85;6.28;;;538.50;2406.40;;;;;;5076921;28;21449;-60
2023/09/29 06:09:51;;;;;;;10.27;6.50;;;563.90;2278.40;;;;;;5089831;28;20016;-59
2023/09/29 06:12:16;;;;;;;15.95;6.53;;;589.50;2150.40;;;;;;5088492;28;20106;-59
2023/09/29 06:14:42;;;;;;;13.30;6.75;;;615.20;2022.40;;;;;;5090057;28;20016;-60
2023/09/29 06:17:08;;;;;;;9.80;6.25;;;640.60;1920.00;;;;;;5073090;28;20082;-60
2023/09/29 06:19:33;;;;;;;9.75;5.93;;;665.70;1894.40;;;;;;5082739;28;20057;-60
2023/09/29 06:22:00;;;;;;;9.70;6.03;;;666.10;1843.20;;;;;;5083359;28;20040;-59
2023/09/29 06:24:25;;;;;;;12.73;7.00;;;666.30;1843.20;;;;;;5085707;28;20027;-60
2023/09/29 06:26:51;;;;;;;9.90;6.70;;;691.80;1766.40;;;;;;5086089;28;20409;-63
2023/09/29 06:29:17;;;;;;;9.15;6.78;;;717.50;1715.20;;;;;;5086670;28;20069;-61
2023/09/29 06:31:42;;;;;;;9.38;6.95;;;742.50;1664.00;;;;;;5088194;28;20466;-64
2023/09/29 06:34:08;;;;;;;8.60;7.63;;;742.60;1638.40;;;;;;5080848;28;20032;-64
2023/09/29 06:36:34;;;;;;;9.05;7.53;;;742.90;1638.40;;;;;;5080688;28;20020;-65
2023/09/29 06:38:59;;;;;;;9.18;7.32;;;743.10;1612.80;;;;;;5062458;28;20036;-62
2023/09/29 06:41:26;;;;;;;8.32;7.18;;;742.70;1638.40;;;;;;5083660;28;20012;-62
2023/09/29 06:43:53;;;;;;;9.48;7.05;;;743.00;1638.40;;;;;;5088164;28;20032;-63
2023/09/29 06:46:18;;;;;;;9.45;6.93;;;793.70;1587.20;;;;;;5087543;28;20051;-63
2023/09/29 06:48:44;;;;;;;9.88;7.72;;;793.60;1561.60;;;;;;5087955;28;20413;-64
2023/09/29 06:51:10;;;;;;;12.05;7.18;;;819.30;1536.00;;;;;;5086664;28;20024;-63
2023/09/29 06:53:35;;;;;;;8.77;7.90;;;819.70;1484.80;;;;;;5085853;28;20089;-63
2023/09/29 06:56:01;;;;;;;11.82;9.38;;;844.90;1484.80;;;;;;5079726;28;20585;-62
2023/09/29 06:58:27;;;;;;;8.77;7.63;;;845.20;1484.80;;;;;;5081650;28;20031;-63
2023/09/29 07:00:53;;;;;;;9.27;8.45;;;845.50;1433.60;;;;;;5075906;28;20035;-62
2023/09/29 07:03:19;;;;;;;10.15;8.27;;;870.90;1408.00;;;;;;5082643;28;20028;-63
2023/09/29 07:05:48;;;;;;;10.50;9.05;;;896.20;1382.40;;;;;;5071169;28;20052;-64
2023/09/29 07:08:13;;;;;;;9.18;8.00;;;896.70;1331.20;;;;;;5068415;28;20028;-64
2023/09/29 07:10:40;;;;;;;10.90;8.38;;;896.10;1331.20;;;;;;5066178;28;20021;-64
2023/09/29 07:13:05;;;;;;;10.60;7.60;;;870.90;1382.40;;;;;;5058281;28;20562;-65
2023/09/29 07:15:31;;;;;;;11.25;8.95;;;871.10;1356.80;;;;;;5077970;28;20036;-65
2023/09/29 07:17:57;;;;;;;13.60;8.55;;;896.00;1356.80;;;;;;5080111;28;20115;-64
2023/09/29 07:20:22;;;;;;;8.88;8.02;;;896.10;1331.20;;;;;;5087089;28;20070;-65
2023/09/29 07:22:51;;;;;;;11.23;8.88;;;922.00;1305.60;;;;;;5071024;28;20044;-63
2023/09/29 07:25:18;;;;;;;11.60;8.35;;;896.60;1331.20;;;;;;5091885;28;20036;-63
2023/09/29 07:27:44;;;;;;;15.48;9.20;;;870.60;1382.40;;;;;;5077365;28;20067;-63
2023/09/29 07:30:12;;;;;;;9.07;8.10;;;870.60;1408.00;;;;;;5085228;28;20027;-66
2023/09/29 07:32:41;;;;;;;14.50;10.10;;;870.50;1408.00;;;;;;5072945;28;20486;-63
2023/09/29 07:35:07;;;;;;;11.23;9.43;;;896.00;1356.80;;;;;;5081245;28;20511;-63
2023/09/29 07:37:33;;;;;;;13.80;9.30;;;896.60;1331.20;;;;;;5088980;28;20024;-64
2023/09/29 07:39:59;;;;;;;12.63;10.75;;;922.50;1280.00;;;;;;5087592;28;20035;-63
2023/09/29 07:42:25;;;;;;;15.18;9.52;;;896.90;1305.60;;;;;;5085561;28;20055;-63
2023/09/29 07:44:50;;;;;;;11.23;10.10;;;947.40;1280.00;;;;;;5070422;28;20020;-65
2023/09/29 07:47:17;;;;;;;19.25;17.42;;;947.60;1254.40;;;;;;5074076;28;20394;-65
2023/09/29 07:49:42;;;;;;;13.07;9.25;;;947.60;1254.40;;;;;;5091626;28;20114;-64
2023/09/29 07:52:08;;;;;;;14.82;10.57;;;972.80;1280.00;;;;;;5092839;28;20565;-64
2023/09/29 07:54:34;;;;;;;15.65;10.70;;;947.90;1254.40;;;;;;5087824;28;20545;-65
2023/09/29 07:57:01;;;;;;;12.70;10.30;;;973.70;1228.80;;;;;;5085076;28;20067;-64
2023/09/29 07:59:26;;;;;;;14.30;11.65;;;922.30;1305.60;;;;;;5085921;28;20067;-63
2023/09/29 08:01:52;;;;;;;13.18;10.82;;;921.90;1305.60;;;;;;5087183;28;20060;-64
2023/09/29 08:04:18;;;;;;;21.70;12.13;;;896.80;1305.60;;;;;;5088278;28;20036;-64
2023/09/29 08:06:44;;;;;;;18.17;13.07;;;921.60;1305.60;;;;;;5093398;28;20578;-63
2023/09/29 08:09:12;;;;;;;13.70;10.32;;;896.60;1305.60;;;;;;5093641;28;20024;-64
2023/09/29 08:11:40;;;;;;;19.60;11.30;;;896.90;1280.00;;;;;;5092377;28;20079;-64
2023/09/29 08:14:06;;;;;;;14.95;9.38;;;922.30;1280.00;;;;;;5093510;28;20047;-65
2023/09/29 08:16:34;;;;;;;12.20;9.55;;;972.90;1228.80;;;;;;5091312;28;20028;-65
2023/09/29 08:19:00;;;;;;;13.20;10.73;;;973.70;1203.20;;;;;;5065202;28;20083;-64
2023/09/29 08:21:26;;;;;;;11.10;10.10;;;998.80;1177.60;;;;;;5079325;28;20761;-64
2023/09/29 08:23:51;;;;;;;15.60;10.55;;;973.00;1177.60;;;;;;5093474;28;20071;-65
2023/09/29 08:26:17;;;;;;;12.77;9.90;;;998.80;1177.60;;;;;;5066267;28;20024;-64
2023/09/29 08:28:43;;;;;;;12.25;10.43;;;1024.10;1126.40;;;;;;5093015;28;20107;-63
2023/09/29 08:31:13;;;;;;;13.32;10.27;;;973.00;1152.00;;;;;;5092909;28;20016;-64
2023/09/29 08:33:39;;;;;;;13.43;9.50;;;948.10;1152.00;;;;;;5092444;28;20529;-66
2023/09/29 08:36:05;;;;;;;11.20;8.75;;;973.20;1126.40;;;;;;5091136;28;20114;-65
2023/09/29 08:38:31;;;;;;;12.70;9.70;;;948.00;1152.00;;;;;;5087172;28;20024;-63
2023/09/29 08:40:58;;;;;;;13.00;8.40;;;921.90;1203.20;;;;;;5073227;28;20056;-65
2023/09/29 08:43:28;;;;;;;12.95;8.32;;;921.70;1203.20;;;;;;5081703;28;20037;-64
2023/09/29 08:45:58;;;;;;;9.02;8.18;;;922.30;1177.60;;;;;;5089246;28;20016;-65
2023/09/29 08:48:29;;;;;;;14.77;10.68;;;972.90;1126.40;;;;;;5091349;28;20036;-64
2023/09/29 08:51:00;;;;;;;13.85;8.57;;;922.00;1203.20;;;;;;5090681;28;20024;-66
2023/09/29 08:53:30;;;;;;;9.93;8.60;;;896.40;1177.60;;;;;;5090858;28;20047;-63
2023/09/29 08:55:57;;;;;;;14.75;9.85;;;871.10;1228.80;;;;;;5068108;28;20105;-64
2023/09/29 08:58:23;;;;;;;21.52;9.15;;;870.90;1228.80;;;;;;5080499;28;20427;-63
2023/09/29 09:00:52;;;;;;;14.73;7.47;;;845.10;1305.60;;;;;;5090928;28;20016;-65
2023/09/29 09:03:18;;;;;;;11.05;7.57;;;819.50;1331.20;;;;;;5090780;28;20089;-63
2023/09/29 09:05:44;;;;;;;17.92;11.32;;;768.90;1356.80;;;;;;5091246;28;20487;-62
2023/09/29 09:08:13;;;;;;;20.38;8.65;;;768.10;1408.00;;;;;;5077599;28;20467;-65
2023/09/29 09:10:40;;;;;;;17.45;9.57;;;743.30;1459.20;;;;;;5089984;28;20016;-63
2023/09/29 09:13:08;;;;;;;18.80;7.63;;;743.30;1433.60;;;;;;5091125;28;20461;-64
2023/09/29 09:15:34;;;;;;;14.60;6.78;;;742.40;1459.20;;;;;;5090628;28;20020;-64
2023/09/29 09:18:00;;;;;;;12.90;7.15;;;742.40;1459.20;;;;;;5090362;28;20030;-63
2023/09/29 09:20:26;;;;;;;19.98;7.38;;;742.60;1459.20;;;;;;5090570;28;20119;-64
2023/09/29 09:23:11;;;;;;;15.82;8.10;;;717.20;1459.20;;;;;;5090236;28;20414;-62
2023/09/29 09:25:41;;;;;;;15.63;7.22;;;717.30;1484.80;;;;;;5090572;28;20024;-63
2023/09/29 09:28:17;;;;;;;9.82;6.93;;;717.30;1510.40;;;;;;5084692;28;20029;-62
2023/09/29 09:30:44;;;;;;;14.48;7.30;;;692.00;1484.80;;;;;;5070737;28;20031;-63
2023/09/29 09:33:21;;;;;;;11.45;7.18;;;692.00;1510.40;;;;;;5088707;28;20023;-62
2023/09/29 09:35:48;;;;;;;10.13;6.85;;;691.70;1484.80;;;;;;5089682;28;20108;-64
2023/09/29 09:38:14;;;;;;;13.88;7.85;;;691.40;1510.40;;;;;;5064597;28;20552;-62
2023/09/29 09:40:40;;;;;;;11.93;6.90;;;691.90;1484.80;;;;;;5076546;28;20025;-64
2023/09/29 09:43:07;;;;;;;11.10;6.82;;;716.80;1484.80;;;;;;5077500;28;20032;-63
2023/09/29 09:45:43;;;;;;;15.98;6.93;;;692.10;1484.80;;;;;;5089398;28;20020;-62
2023/09/29 09:48:10;;;;;;;11.23;6.90;;;692.10;1484.80;;;;;;5088591;28;20363;-64
2023/09/29 09:50:40;;;;;;;14.02;6.93;;;691.80;1510.40;;;;;;5090162;28;20100;-63
2023/09/29 09:53:09;;;;;;;11.27;7.22;;;691.90;1510.40;;;;;;5089804;28;20616;-64
2023/09/29 09:55:44;;;;;;;9.75;7.82;;;716.90;1510.40;;;;;;5089862;28;20044;-63
2023/09/29 09:58:15;;;;;;;9.60;6.88;;;716.90;1536.00;;;;;;5090072;28;20025;-65
2023/09/29 10:00:45;;;;;;;14.77;7.07;;;692.00;1484.80;;;;;;5089323;28;20011;-64
2023/09/29 10:03:14;;;;;;;16.92;6.55;;;691.70;1510.40;;;;;;5069642;28;20106;-64
2023/09/29 10:05:42;;;;;;;14.30;6.95;;;691.60;1510.40;;;;;;5081432;28;20021;-64
2023/09/29 10:08:10;;;;;;;11.13;6.82;;;691.80;1484.80;;;;;;5081551;28;20417;-64
2023/09/29 10:10:41;;;;;;;12.02;7.22;;;691.60;1510.40;;;;;;5084991;28;20024;-64
2023/09/29 10:13:12;;;;;;;12.00;7.15;;;691.60;1536.00;;;;;;5089785;28;20482;-64
2023/09/29 10:15:41;;;;;;;14.63;6.47;;;666.50;1536.00;;;;;;5089074;28;20089;-63
2023/09/29 10:18:17;;;;;;;13.35;6.97;;;666.50;1561.60;;;;;;5089280;28;20394;-64
2023/09/29 10:20:44;;;;;;;12.02;7.15;;;666.50;1587.20;;;;;;5089088;28;20055;-62
2023/09/29 10:23:14;;;;;;;17.85;7.32;;;666.30;1536.00;;;;;;5089820;28;20036;-63
2023/09/29 10:25:44;;;;;;;10.93;5.88;;;666.50;1536.00;;;;;;5089051;28;20099;-63
2023/09/29 10:28:12;;;;;;;11.88;6.20;;;666.20;1536.00;;;;;;5089506;28;20032;-63
2023/09/29 10:30:40;;;;;;;17.00;6.70;;;666.20;1561.60;;;;;;5089292;28;20030;-64
2023/09/29 10:33:11;;;;;;;12.57;6.32;;;666.20;1536.00;;;;;;5089446;28;20149;-63
2023/09/29 10:35:46;;;;;;;9.95;6.30;;;691.20;1536.00;;;;;;5082424;28;20410;-65
2023/09/29 10:38:33;;;;;;;16.27;6.45;;;691.40;1561.60;;;;;;5076789;28;20222;-63
2023/09/29 10:40:59;;;;;;;20.27;6.88;;;666.50;1536.00;;;;;;5089324;28;20142;-62
2023/09/29 10:43:24;;;;;;;13.13;6.28;;;666.50;1561.60;;;;;;5087959;28;21064;-62
2023/09/29 10:45:51;;;;;;;14.13;8.35;;;691.20;1561.60;;;;;;5089087;28;20099;-62
2023/09/29 10:48:26;;;;;;;14.77;6.65;;;666.50;1587.20;;;;;;5088902;28;20088;-62
2023/09/29 10:50:52;;;;;;;13.93;6.90;;;691.20;1561.60;;;;;;5089186;28;20378;-62
2023/09/29 10:53:22;;;;;;;18.58;6.05;;;666.50;1536.00;;;;;;5088780;28;20072;-62
2023/09/29 10:55:50;;;;;;;15.23;6.65;;;691.20;1536.00;;;;;;5088679;28;20024;-62
2023/09/29 10:58:17;;;;;;;7.82;4.88;;;666.50;1510.40;;;;;;5089002;28;20069;-63
2023/09/29 11:00:51;;;;;;;12.93;5.50;;;666.40;1484.80;;;;;;5089357;28;20031;-62
2023/09/29 11:03:27;;;;;;;9.25;5.07;;;666.50;1484.80;;;;;;5088439;28;20036;-62
2023/09/29 11:05:55;;;;;;;10.65;5.35;;;666.50;1484.80;;;;;;5081756;28;20050;-63
2023/09/29 11:08:29;;;;;;;11.10;5.00;;;666.50;1484.80;;;;;;5062972;28;20024;-62
2023/09/29 11:11:16;;;;;;;11.27;5.10;;;666.50;1484.80;;;;;;5087711;28;20016;-62
2023/09/29 11:13:42;;;;;;;14.95;5.20;;;666.40;1433.60;;;;;;5086735;28;20020;-61
2023/09/29 11:16:17;;;;;;;12.43;5.47;;;666.50;1459.20;;;;;;5085633;28;20380;-61
2023/09/29 11:18:46;;;;;;;10.25;5.63;;;691.20;1408.00;;;;;;5076284;28;20127;-62
2023/09/29 11:21:12;;;;;;;12.20;5.38;;;691.20;1408.00;;;;;;5077355;28;20101;-65
2023/09/29 11:23:45;;;;;;;10.73;5.20;;;691.30;1459.20;;;;;;5075615;28;20446;-63
2023/09/29 11:26:12;;;;;;;9.85;4.85;;;691.30;1433.60;;;;;;5074146;28;20028;-62
2023/09/29 11:28:43;;;;;;;17.15;5.45;;;691.40;1408.00;;;;;;5074689;28;20100;-64
2023/09/29 11:31:10;;;;;;;14.23;5.47;;;691.40;1433.60;;;;;;5075732;28;20044;-63
2023/09/29 11:33:35;;;;;;;10.93;4.95;;;691.40;1433.60;;;;;;5079548;28;20024;-62
2023/09/29 11:36:10;;;;;;;13.68;5.32;;;691.20;1408.00;;;;;;5086960;28;20028;-64
2023/09/29 11:38:36;;;;;;;11.32;5.70;;;691.40;1433.60;;;;;;5071421;28;20091;-62
2023/09/29 11:41:01;;;;;;;15.43;6.68;;;691.40;1408.00;;;;;;5083747;28;20047;-64
2023/09/29 11:43:27;;;;;;;12.45;4.95;;;691.40;1433.60;;;;;;5086806;28;20043;-63
2023/09/29 11:45:53;;;;;;;11.98;5.38;;;691.30;1408.00;;;;;;5081023;28;20039;-60
2023/09/29 11:48:19;;;;;;;9.82;4.75;;;691.40;1433.60;;;;;;5068090;28;20465;-62
2023/09/29 11:50:44;;;;;;;10.77;4.80;;;691.40;1408.00;;;;;;5080612;28;20012;-62
2023/09/29 11:53:10;;;;;;;10.77;4.80;;;691.60;1433.60;;;;;;5074191;28;20527;-63
2023/09/29 11:55:38;;;;;;;13.32;4.97;;;691.40;1408.00;;;;;;5086656;28;20108;-62
2023/09/29 11:58:04;;;;;;;16.88;5.43;;;691.30;1433.60;;;;;;5086818;28;20043;-62
2023/09/29 12:00:30;;;;;;;14.05;5.13;;;691.20;1433.60;;;;;;5087663;28;20111;-62
2023/09/29 12:02:56;;;;;;;11.27;4.82;;;691.30;1433.60;;;;;;5086674;28;20036;-63
2023/09/29 12:05:22;;;;;;;7.35;4.65;;;691.40;1459.20;;;;;;5086308;28;20326;-63
2023/09/29 12:07:48;;;;;;;11.90;4.35;;;691.30;1433.60;;;;;;5086288;28;20489;-62
2023/09/29 12:10:14;;;;;;;12.50;4.80;;;691.40;1433.60;;;;;;5070931;28;20052;-63
2023/09/29 12:12:40;;;;;;;17.15;6.55;;;691.50;1433.60;;;;;;5089065;28;20050;-64